sensor_id;sensor_type;location;lat;lon;timestamp;P1;durP1;ratioP1;P2;durP2;ratioP2
38123;SDS011;23934;47.998;9.832;2022-10-31T00:00:41;51.17;;;15.60;;
38123;SDS011;23934;47.998;9.832;2022-10-31T00:03:07;48.45;;;15.75;;
38123;SDS011;23934;47.998;9.832;2022-10-31T00:05:32;48.35;;;16.55;;
38123;SDS011;23934;47.998;9.832;2022-10-31T00:07:58;44.70;;;16.25;;
38123;SDS011;23934;47.998;9.832;2022-10-31T00:10:24;49.83;;;16.05;;
38123;SDS011;23934;47.998;9.832;2022-10-31T00:12:51;36.42;;;14.18;;
38123;SDS011;23934;47.998;9.832;2022-10-31T00:15:17;37.75;;;13.60;;
38123;SDS011;23934;47.998;9.832;2022-10-31T00:17:43;42.20;;;13.27;;
38123;SDS011;23934;47.998;9.832;2022-10-31T00:20:09;38.85;;;13.38;;
38123;SDS011;23934;47.998;9.832;2022-10-31T00:22:35;43.10;;;13.13;;
38123;SDS011;23934;47.998;9.832;2022-10-31T00:25:01;37.67;;;12.32;;
38123;SDS011;23934;47.998;9.832;2022-10-31T00:27:27;39.80;;;13.93;;
38123;SDS011;23934;47.998;9.832;2022-10-31T00:29:53;41.00;;;13.40;;
38123;SDS011;23934;47.998;9.832;2022-10-31T00:32:19;42.97;;;13.38;;
38123;SDS011;23934;47.998;9.832;2022-10-31T00:34:45;41.88;;;14.35;;
38123;SDS011;23934;47.998;9.832;2022-10-31T00:37:11;43.13;;;13.65;;
38123;SDS011;23934;47.998;9.832;2022-10-31T00:39:37;37.92;;;13.90;;
38123;SDS011;23934;47.998;9.832;2022-10-31T00:42:03;33.63;;;11.77;;
38123;SDS011;23934;47.998;9.832;2022-10-31T00:44:29;44.45;;;15.02;;
38123;SDS011;23934;47.998;9.832;2022-10-31T00:46:55;43.08;;;14.30;;
38123;SDS011;23934;47.998;9.832;2022-10-31T00:49:21;42.22;;;14.38;;
38123;SDS011;23934;47.998;9.832;2022-10-31T00:51:47;46.17;;;14.57;;
38123;SDS011;23934;47.998;9.832;2022-10-31T00:54:13;38.50;;;14.52;;
38123;SDS011;23934;47.998;9.832;2022-10-31T00:56:39;40.75;;;14.63;;
38123;SDS011;23934;47.998;9.832;2022-10-31T00:59:05;41.75;;;14.50;;
38123;SDS011;23934;47.998;9.832;2022-10-31T01:01:31;47.03;;;14.70;;
38123;SDS011;23934;47.998;9.832;2022-10-31T01:03:57;46.97;;;13.98;;
38123;SDS011;23934;47.998;9.832;2022-10-31T01:06:23;60.75;;;16.67;;
38123;SDS011;23934;47.998;9.832;2022-10-31T01:08:49;57.38;;;16.38;;
38123;SDS011;23934;47.998;9.832;2022-10-31T01:11:17;51.03;;;16.88;;
38123;SDS011;23934;47.998;9.832;2022-10-31T01:13:43;59.58;;;16.70;;
38123;SDS011;23934;47.998;9.832;2022-10-31T01:16:10;48.28;;;17.08;;
38123;SDS011;23934;47.998;9.832;2022-10-31T01:18:37;56.22;;;16.15;;
38123;SDS011;23934;47.998;9.832;2022-10-31T01:21:04;54.35;;;16.80;;
38123;SDS011;23934;47.998;9.832;2022-10-31T01:23:30;55.15;;;17.60;;
38123;SDS011;23934;47.998;9.832;2022-10-31T01:26:04;67.55;;;18.10;;
38123;SDS011;23934;47.998;9.832;2022-10-31T01:28:30;60.35;;;16.88;;
38123;SDS011;23934;47.998;9.832;2022-10-31T01:30:59;45.47;;;15.63;;
38123;SDS011;23934;47.998;9.832;2022-10-31T01:33:25;44.63;;;14.75;;
38123;SDS011;23934;47.998;9.832;2022-10-31T01:35:51;45.33;;;16.65;;
38123;SDS011;23934;47.998;9.832;2022-10-31T01:38:17;50.30;;;15.38;;
38123;SDS011;23934;47.998;9.832;2022-10-31T01:40:43;46.72;;;15.18;;
38123;SDS011;23934;47.998;9.832;2022-10-31T01:43:13;43.25;;;15.75;;
38123;SDS011;23934;47.998;9.832;2022-10-31T01:45:39;42.40;;;15.02;;
38123;SDS011;23934;47.998;9.832;2022-10-31T01:48:06;51.65;;;15.82;;
38123;SDS011;23934;47.998;9.832;2022-10-31T01:50:36;36.35;;;13.43;;
38123;SDS011;23934;47.998;9.832;2022-10-31T01:53:03;39.08;;;13.95;;
38123;SDS011;23934;47.998;9.832;2022-10-31T01:55:34;34.90;;;13.57;;
38123;SDS011;23934;47.998;9.832;2022-10-31T01:58:03;42.45;;;13.30;;
38123;SDS011;23934;47.998;9.832;2022-10-31T02:00:30;45.58;;;12.00;;
38123;SDS011;23934;47.998;9.832;2022-10-31T02:02:56;35.28;;;12.52;;
38123;SDS011;23934;47.998;9.832;2022-10-31T02:05:23;37.35;;;12.30;;
38123;SDS011;23934;47.998;9.832;2022-10-31T02:07:53;42.88;;;13.25;;
38123;SDS011;23934;47.998;9.832;2022-10-31T02:10:21;33.88;;;11.93;;
38123;SDS011;23934;47.998;9.832;2022-10-31T02:12:47;32.95;;;12.65;;
38123;SDS011;23934;47.998;9.832;2022-10-31T02:15:14;45.03;;;13.93;;
38123;SDS011;23934;47.998;9.832;2022-10-31T02:17:40;42.67;;;13.77;;
38123;SDS011;23934;47.998;9.832;2022-10-31T02:20:16;55.60;;;12.40;;
38123;SDS011;23934;47.998;9.832;2022-10-31T02:22:54;41.30;;;12.40;;
38123;SDS011;23934;47.998;9.832;2022-10-31T02:38:04;54.47;;;16.23;;
38123;SDS011;23934;47.998;9.832;2022-10-31T02:40:35;48.08;;;15.68;;
38123;SDS011;23934;47.998;9.832;2022-10-31T02:43:11;44.40;;;16.48;;
38123;SDS011;23934;47.998;9.832;2022-10-31T02:45:45;48.33;;;15.10;;
38123;SDS011;23934;47.998;9.832;2022-10-31T02:48:15;42.33;;;14.65;;
38123;SDS011;23934;47.998;9.832;2022-10-31T02:50:45;41.05;;;14.25;;
38123;SDS011;23934;47.998;9.832;2022-10-31T02:53:15;39.28;;;15.05;;
38123;SDS011;23934;47.998;9.832;2022-10-31T02:55:46;54.42;;;15.02;;
38123;SDS011;23934;47.998;9.832;2022-10-31T03:01:09;43.15;;;13.77;;
38123;SDS011;23934;47.998;9.832;2022-10-31T03:08:47;84.47;;;15.73;;
38123;SDS011;23934;47.998;9.832;2022-10-31T03:11:16;40.05;;;14.35;;
38123;SDS011;23934;47.998;9.832;2022-10-31T03:16:45;50.45;;;16.40;;
38123;SDS011;23934;47.998;9.832;2022-10-31T03:19:16;49.60;;;15.90;;
38123;SDS011;23934;47.998;9.832;2022-10-31T03:24:09;43.72;;;14.52;;
38123;SDS011;23934;47.998;9.832;2022-10-31T03:26:37;48.22;;;15.20;;
38123;SDS011;23934;47.998;9.832;2022-10-31T03:29:07;41.88;;;14.18;;
38123;SDS011;23934;47.998;9.832;2022-10-31T03:31:38;35.88;;;12.57;;
38123;SDS011;23934;47.998;9.832;2022-10-31T03:34:05;42.40;;;13.30;;
38123;SDS011;23934;47.998;9.832;2022-10-31T03:36:32;50.88;;;14.23;;
38123;SDS011;23934;47.998;9.832;2022-10-31T03:38:59;53.38;;;13.25;;
38123;SDS011;23934;47.998;9.832;2022-10-31T03:41:28;46.47;;;13.80;;
38123;SDS011;23934;47.998;9.832;2022-10-31T03:43:55;37.55;;;13.00;;
38123;SDS011;23934;47.998;9.832;2022-10-31T03:46:22;35.78;;;12.98;;
38123;SDS011;23934;47.998;9.832;2022-10-31T03:48:48;39.67;;;12.48;;
38123;SDS011;23934;47.998;9.832;2022-10-31T03:51:36;38.88;;;12.07;;
38123;SDS011;23934;47.998;9.832;2022-10-31T03:56:49;58.22;;;12.27;;
38123;SDS011;23934;47.998;9.832;2022-10-31T03:59:35;35.47;;;12.18;;
38123;SDS011;23934;47.998;9.832;2022-10-31T04:02:06;44.15;;;12.85;;
38123;SDS011;23934;47.998;9.832;2022-10-31T04:04:33;49.03;;;13.52;;
38123;SDS011;23934;47.998;9.832;2022-10-31T04:07:00;44.65;;;13.90;;
38123;SDS011;23934;47.998;9.832;2022-10-31T04:09:27;40.22;;;14.20;;
38123;SDS011;23934;47.998;9.832;2022-10-31T04:11:54;39.33;;;13.45;;
38123;SDS011;23934;47.998;9.832;2022-10-31T04:14:23;35.83;;;12.85;;
38123;SDS011;23934;47.998;9.832;2022-10-31T04:16:49;41.33;;;12.82;;
38123;SDS011;23934;47.998;9.832;2022-10-31T04:19:15;41.85;;;12.75;;
38123;SDS011;23934;47.998;9.832;2022-10-31T04:21:41;47.28;;;12.80;;
38123;SDS011;23934;47.998;9.832;2022-10-31T04:24:08;48.75;;;14.75;;
38123;SDS011;23934;47.998;9.832;2022-10-31T04:26:34;36.67;;;12.38;;
38123;SDS011;23934;47.998;9.832;2022-10-31T04:29:00;47.40;;;13.02;;
38123;SDS011;23934;47.998;9.832;2022-10-31T04:31:26;36.58;;;12.93;;
38123;SDS011;23934;47.998;9.832;2022-10-31T04:33:52;39.67;;;13.13;;
38123;SDS011;23934;47.998;9.832;2022-10-31T04:36:18;41.42;;;12.75;;
38123;SDS011;23934;47.998;9.832;2022-10-31T04:38:44;34.42;;;12.68;;
38123;SDS011;23934;47.998;9.832;2022-10-31T04:41:10;32.17;;;11.57;;
38123;SDS011;23934;47.998;9.832;2022-10-31T04:43:36;37.95;;;12.90;;
38123;SDS011;23934;47.998;9.832;2022-10-31T04:46:02;153.20;;;14.40;;
38123;SDS011;23934;47.998;9.832;2022-10-31T04:48:29;27.08;;;10.85;;
38123;SDS011;23934;47.998;9.832;2022-10-31T04:50:58;75.63;;;14.35;;
38123;SDS011;23934;47.998;9.832;2022-10-31T04:53:25;41.75;;;12.52;;
38123;SDS011;23934;47.998;9.832;2022-10-31T04:55:51;50.40;;;14.43;;
38123;SDS011;23934;47.998;9.832;2022-10-31T04:58:17;52.15;;;13.30;;
38123;SDS011;23934;47.998;9.832;2022-10-31T05:00:43;37.85;;;12.20;;
38123;SDS011;23934;47.998;9.832;2022-10-31T05:03:09;36.25;;;12.52;;
38123;SDS011;23934;47.998;9.832;2022-10-31T05:05:34;40.08;;;13.23;;
38123;SDS011;23934;47.998;9.832;2022-10-31T05:08:00;34.85;;;11.68;;
38123;SDS011;23934;47.998;9.832;2022-10-31T05:10:27;32.80;;;10.98;;
38123;SDS011;23934;47.998;9.832;2022-10-31T05:12:57;26.90;;;11.15;;
38123;SDS011;23934;47.998;9.832;2022-10-31T05:15:24;78.00;;;12.40;;
38123;SDS011;23934;47.998;9.832;2022-10-31T05:17:50;167.15;;;14.73;;
38123;SDS011;23934;47.998;9.832;2022-10-31T05:20:17;203.27;;;14.90;;
38123;SDS011;23934;47.998;9.832;2022-10-31T05:22:44;224.48;;;15.13;;
38123;SDS011;23934;47.998;9.832;2022-10-31T05:25:10;125.88;;;13.30;;
38123;SDS011;23934;47.998;9.832;2022-10-31T05:27:43;141.07;;;10.05;;
38123;SDS011;23934;47.998;9.832;2022-10-31T05:30:10;119.28;;;11.82;;
38123;SDS011;23934;47.998;9.832;2022-10-31T05:32:37;298.35;;;17.15;;
38123;SDS011;23934;47.998;9.832;2022-10-31T05:35:03;87.00;;;12.13;;
38123;SDS011;23934;47.998;9.832;2022-10-31T05:37:30;276.77;;;15.35;;
38123;SDS011;23934;47.998;9.832;2022-10-31T05:39:56;230.02;;;14.93;;
38123;SDS011;23934;47.998;9.832;2022-10-31T05:42:22;347.15;;;20.20;;
38123;SDS011;23934;47.998;9.832;2022-10-31T05:44:47;636.38;;;27.75;;
38123;SDS011;23934;47.998;9.832;2022-10-31T05:47:13;47.38;;;10.25;;
38123;SDS011;23934;47.998;9.832;2022-10-31T05:49:39;51.92;;;10.10;;
38123;SDS011;23934;47.998;9.832;2022-10-31T05:52:05;27.35;;;10.25;;
38123;SDS011;23934;47.998;9.832;2022-10-31T05:54:31;26.40;;;9.55;;
38123;SDS011;23934;47.998;9.832;2022-10-31T05:56:57;20.33;;;8.35;;
38123;SDS011;23934;47.998;9.832;2022-10-31T05:59:23;32.50;;;9.70;;
38123;SDS011;23934;47.998;9.832;2022-10-31T06:01:49;306.30;;;16.95;;
38123;SDS011;23934;47.998;9.832;2022-10-31T06:04:15;69.05;;;12.52;;
38123;SDS011;23934;47.998;9.832;2022-10-31T06:06:41;216.13;;;13.30;;
38123;SDS011;23934;47.998;9.832;2022-10-31T06:09:07;399.95;;;22.27;;
38123;SDS011;23934;47.998;9.832;2022-10-31T06:11:33;156.30;;;14.63;;
38123;SDS011;23934;47.998;9.832;2022-10-31T06:13:59;301.48;;;16.17;;
38123;SDS011;23934;47.998;9.832;2022-10-31T06:16:25;236.27;;;15.30;;
38123;SDS011;23934;47.998;9.832;2022-10-31T06:18:51;224.02;;;15.38;;
38123;SDS011;23934;47.998;9.832;2022-10-31T06:21:17;114.68;;;12.93;;
38123;SDS011;23934;47.998;9.832;2022-10-31T06:23:43;122.38;;;15.27;;
38123;SDS011;23934;47.998;9.832;2022-10-31T06:26:09;40.22;;;12.60;;
38123;SDS011;23934;47.998;9.832;2022-10-31T06:28:35;153.65;;;15.50;;
38123;SDS011;23934;47.998;9.832;2022-10-31T06:31:01;92.63;;;13.52;;
38123;SDS011;23934;47.998;9.832;2022-10-31T06:33:27;109.55;;;13.60;;
38123;SDS011;23934;47.998;9.832;2022-10-31T06:35:52;71.63;;;12.80;;
38123;SDS011;23934;47.998;9.832;2022-10-31T06:38:18;107.10;;;13.30;;
38123;SDS011;23934;47.998;9.832;2022-10-31T06:40:44;127.85;;;14.60;;
38123;SDS011;23934;47.998;9.832;2022-10-31T06:43:10;83.40;;;15.15;;
38123;SDS011;23934;47.998;9.832;2022-10-31T06:45:36;126.28;;;17.55;;
38123;SDS011;23934;47.998;9.832;2022-10-31T06:48:02;62.78;;;15.13;;
38123;SDS011;23934;47.998;9.832;2022-10-31T06:50:29;63.80;;;17.30;;
38123;SDS011;23934;47.998;9.832;2022-10-31T06:52:56;69.53;;;17.58;;
38123;SDS011;23934;47.998;9.832;2022-10-31T06:55:22;62.13;;;19.00;;
38123;SDS011;23934;47.998;9.832;2022-10-31T06:57:52;100.18;;;22.25;;
38123;SDS011;23934;47.998;9.832;2022-10-31T07:00:18;65.32;;;18.50;;
38123;SDS011;23934;47.998;9.832;2022-10-31T07:03:07;67.78;;;18.60;;
38123;SDS011;23934;47.998;9.832;2022-10-31T07:05:31;63.35;;;18.05;;
38123;SDS011;23934;47.998;9.832;2022-10-31T07:07:59;80.55;;;19.98;;
38123;SDS011;23934;47.998;9.832;2022-10-31T07:10:26;88.68;;;21.42;;
38123;SDS011;23934;47.998;9.832;2022-10-31T07:12:55;78.18;;;19.05;;
38123;SDS011;23934;47.998;9.832;2022-10-31T07:15:22;93.00;;;21.52;;
38123;SDS011;23934;47.998;9.832;2022-10-31T07:17:48;100.22;;;23.10;;
38123;SDS011;23934;47.998;9.832;2022-10-31T07:20:14;82.35;;;22.27;;
38123;SDS011;23934;47.998;9.832;2022-10-31T07:22:40;107.97;;;22.90;;
38123;SDS011;23934;47.998;9.832;2022-10-31T07:25:08;70.80;;;18.67;;
38123;SDS011;23934;47.998;9.832;2022-10-31T07:27:37;76.13;;;20.15;;
38123;SDS011;23934;47.998;9.832;2022-10-31T07:30:03;92.68;;;22.52;;
38123;SDS011;23934;47.998;9.832;2022-10-31T07:32:39;99.35;;;22.23;;
38123;SDS011;23934;47.998;9.832;2022-10-31T07:35:07;117.45;;;26.65;;
38123;SDS011;23934;47.998;9.832;2022-10-31T07:37:33;120.50;;;24.92;;
38123;SDS011;23934;47.998;9.832;2022-10-31T07:39:59;124.00;;;28.70;;
38123;SDS011;23934;47.998;9.832;2022-10-31T07:42:25;135.88;;;29.15;;
38123;SDS011;23934;47.998;9.832;2022-10-31T07:44:51;111.95;;;27.35;;
38123;SDS011;23934;47.998;9.832;2022-10-31T07:47:17;103.00;;;26.00;;
38123;SDS011;23934;47.998;9.832;2022-10-31T07:49:43;93.63;;;24.08;;
38123;SDS011;23934;47.998;9.832;2022-10-31T07:52:09;97.65;;;23.65;;
38123;SDS011;23934;47.998;9.832;2022-10-31T07:54:35;127.47;;;28.27;;
38123;SDS011;23934;47.998;9.832;2022-10-31T07:57:01;92.90;;;24.15;;
38123;SDS011;23934;47.998;9.832;2022-10-31T07:59:26;113.45;;;26.95;;
38123;SDS011;23934;47.998;9.832;2022-10-31T08:01:53;122.55;;;28.90;;
38123;SDS011;23934;47.998;9.832;2022-10-31T08:04:19;191.35;;;37.10;;
38123;SDS011;23934;47.998;9.832;2022-10-31T08:06:44;211.02;;;43.00;;
38123;SDS011;23934;47.998;9.832;2022-10-31T08:09:13;251.50;;;52.80;;
38123;SDS011;23934;47.998;9.832;2022-10-31T08:11:39;239.25;;;52.08;;
38123;SDS011;23934;47.998;9.832;2022-10-31T08:14:05;275.48;;;60.63;;
38123;SDS011;23934;47.998;9.832;2022-10-31T08:16:31;263.88;;;59.97;;
38123;SDS011;23934;47.998;9.832;2022-10-31T08:18:57;260.92;;;61.95;;
38123;SDS011;23934;47.998;9.832;2022-10-31T08:21:23;202.18;;;56.92;;
38123;SDS011;23934;47.998;9.832;2022-10-31T08:23:49;208.40;;;58.05;;
38123;SDS011;23934;47.998;9.832;2022-10-31T08:26:14;180.82;;;56.22;;
38123;SDS011;23934;47.998;9.832;2022-10-31T08:28:40;207.85;;;57.08;;
38123;SDS011;23934;47.998;9.832;2022-10-31T08:31:06;197.38;;;54.78;;
38123;SDS011;23934;47.998;9.832;2022-10-31T08:33:34;170.68;;;51.15;;
38123;SDS011;23934;47.998;9.832;2022-10-31T08:35:59;155.43;;;47.47;;
38123;SDS011;23934;47.998;9.832;2022-10-31T08:38:25;135.02;;;41.08;;
38123;SDS011;23934;47.998;9.832;2022-10-31T08:40:51;98.85;;;32.45;;
38123;SDS011;23934;47.998;9.832;2022-10-31T08:43:17;75.85;;;27.80;;
38123;SDS011;23934;47.998;9.832;2022-10-31T08:45:44;65.93;;;22.85;;
38123;SDS011;23934;47.998;9.832;2022-10-31T08:48:14;62.63;;;20.65;;
38123;SDS011;23934;47.998;9.832;2022-10-31T08:50:40;54.72;;;21.52;;
38123;SDS011;23934;47.998;9.832;2022-10-31T08:53:07;51.55;;;17.60;;
38123;SDS011;23934;47.998;9.832;2022-10-31T08:55:35;40.65;;;15.68;;
38123;SDS011;23934;47.998;9.832;2022-10-31T08:58:01;40.30;;;16.02;;
38123;SDS011;23934;47.998;9.832;2022-10-31T09:00:28;43.30;;;13.65;;
38123;SDS011;23934;47.998;9.832;2022-10-31T09:02:54;25.75;;;11.55;;
38123;SDS011;23934;47.998;9.832;2022-10-31T09:05:21;34.85;;;11.88;;
38123;SDS011;23934;47.998;9.832;2022-10-31T09:07:47;32.22;;;11.30;;
38123;SDS011;23934;47.998;9.832;2022-10-31T09:10:13;29.83;;;10.70;;
38123;SDS011;23934;47.998;9.832;2022-10-31T09:12:38;26.23;;;10.80;;
38123;SDS011;23934;47.998;9.832;2022-10-31T09:15:05;36.70;;;11.90;;
38123;SDS011;23934;47.998;9.832;2022-10-31T09:17:31;36.40;;;11.73;;
38123;SDS011;23934;47.998;9.832;2022-10-31T09:19:57;31.98;;;12.30;;
38123;SDS011;23934;47.998;9.832;2022-10-31T09:22:23;30.70;;;12.23;;
38123;SDS011;23934;47.998;9.832;2022-10-31T09:24:49;24.33;;;12.05;;
38123;SDS011;23934;47.998;9.832;2022-10-31T09:27:15;35.20;;;13.05;;
38123;SDS011;23934;47.998;9.832;2022-10-31T09:29:41;31.80;;;12.25;;
38123;SDS011;23934;47.998;9.832;2022-10-31T09:32:07;33.28;;;12.30;;
38123;SDS011;23934;47.998;9.832;2022-10-31T09:34:33;34.15;;;12.73;;
38123;SDS011;23934;47.998;9.832;2022-10-31T09:36:59;26.60;;;12.23;;
38123;SDS011;23934;47.998;9.832;2022-10-31T09:39:25;27.90;;;11.73;;
38123;SDS011;23934;47.998;9.832;2022-10-31T09:41:57;31.60;;;13.38;;
38123;SDS011;23934;47.998;9.832;2022-10-31T09:47:02;30.67;;;13.80;;
38123;SDS011;23934;47.998;9.832;2022-10-31T09:52:02;28.88;;;12.35;;
38123;SDS011;23934;47.998;9.832;2022-10-31T09:54:43;33.70;;;14.07;;
38123;SDS011;23934;47.998;9.832;2022-10-31T09:57:10;33.53;;;12.05;;
38123;SDS011;23934;47.998;9.832;2022-10-31T09:59:39;26.08;;;12.30;;
38123;SDS011;23934;47.998;9.832;2022-10-31T10:02:13;29.35;;;12.25;;
38123;SDS011;23934;47.998;9.832;2022-10-31T10:04:42;41.25;;;13.52;;
38123;SDS011;23934;47.998;9.832;2022-10-31T10:07:19;36.50;;;13.77;;
38123;SDS011;23934;47.998;9.832;2022-10-31T10:09:46;31.02;;;14.02;;
38123;SDS011;23934;47.998;9.832;2022-10-31T10:14:49;34.60;;;14.15;;
38123;SDS011;23934;47.998;9.832;2022-10-31T10:30:15;26.15;;;12.23;;
38123;SDS011;23934;47.998;9.832;2022-10-31T10:32:43;29.52;;;12.10;;
38123;SDS011;23934;47.998;9.832;2022-10-31T10:35:22;27.45;;;11.90;;
38123;SDS011;23934;47.998;9.832;2022-10-31T10:37:50;26.83;;;11.35;;
38123;SDS011;23934;47.998;9.832;2022-10-31T10:40:18;26.13;;;11.75;;
38123;SDS011;23934;47.998;9.832;2022-10-31T10:42:50;39.17;;;12.13;;
38123;SDS011;23934;47.998;9.832;2022-10-31T10:45:37;26.40;;;11.77;;
38123;SDS011;23934;47.998;9.832;2022-10-31T10:48:31;26.10;;;11.23;;
38123;SDS011;23934;47.998;9.832;2022-10-31T10:50:59;28.38;;;11.50;;
38123;SDS011;23934;47.998;9.832;2022-10-31T10:56:30;22.80;;;10.93;;
38123;SDS011;23934;47.998;9.832;2022-10-31T10:58:56;28.45;;;10.98;;
38123;SDS011;23934;47.998;9.832;2022-10-31T11:01:23;27.88;;;11.50;;
38123;SDS011;23934;47.998;9.832;2022-10-31T11:03:49;30.33;;;11.20;;
38123;SDS011;23934;47.998;9.832;2022-10-31T11:06:19;31.58;;;10.77;;
38123;SDS011;23934;47.998;9.832;2022-10-31T11:08:47;42.55;;;12.23;;
38123;SDS011;23934;47.998;9.832;2022-10-31T11:13:44;25.05;;;10.50;;
38123;SDS011;23934;47.998;9.832;2022-10-31T11:18:37;44.95;;;14.48;;
38123;SDS011;23934;47.998;9.832;2022-10-31T11:21:03;23.20;;;10.32;;
38123;SDS011;23934;47.998;9.832;2022-10-31T11:23:30;28.20;;;10.23;;
38123;SDS011;23934;47.998;9.832;2022-10-31T11:25:57;21.83;;;9.20;;
38123;SDS011;23934;47.998;9.832;2022-10-31T11:28:25;18.35;;;5.57;;
38123;SDS011;23934;47.998;9.832;2022-10-31T11:33:30;12.30;;;4.25;;
38123;SDS011;23934;47.998;9.832;2022-10-31T11:35:57;10.52;;;4.65;;
38123;SDS011;23934;47.998;9.832;2022-10-31T11:38:24;16.50;;;5.00;;
38123;SDS011;23934;47.998;9.832;2022-10-31T11:40:52;13.02;;;4.00;;
38123;SDS011;23934;47.998;9.832;2022-10-31T11:43:19;18.83;;;4.53;;
38123;SDS011;23934;47.998;9.832;2022-10-31T11:45:45;9.15;;;4.40;;
38123;SDS011;23934;47.998;9.832;2022-10-31T11:48:18;13.15;;;4.25;;
38123;SDS011;23934;47.998;9.832;2022-10-31T11:50:50;10.32;;;4.10;;
38123;SDS011;23934;47.998;9.832;2022-10-31T11:53:34;17.27;;;5.32;;
38123;SDS011;23934;47.998;9.832;2022-10-31T11:56:05;23.27;;;4.97;;
38123;SDS011;23934;47.998;9.832;2022-10-31T11:58:35;15.43;;;4.10;;
38123;SDS011;23934;47.998;9.832;2022-10-31T12:01:01;15.77;;;4.85;;
38123;SDS011;23934;47.998;9.832;2022-10-31T12:03:33;11.80;;;4.30;;
38123;SDS011;23934;47.998;9.832;2022-10-31T12:06:02;16.85;;;5.40;;
38123;SDS011;23934;47.998;9.832;2022-10-31T12:08:30;8.43;;;3.80;;
38123;SDS011;23934;47.998;9.832;2022-10-31T12:14:10;16.92;;;4.70;;
38123;SDS011;23934;47.998;9.832;2022-10-31T12:24:25;29.23;;;5.25;;
38123;SDS011;23934;47.998;9.832;2022-10-31T12:29:23;16.55;;;5.30;;
38123;SDS011;23934;47.998;9.832;2022-10-31T12:42:12;21.33;;;7.88;;
38123;SDS011;23934;47.998;9.832;2022-10-31T12:47:44;24.83;;;8.23;;
38123;SDS011;23934;47.998;9.832;2022-10-31T12:55:36;22.85;;;7.78;;
38123;SDS011;23934;47.998;9.832;2022-10-31T12:58:47;21.00;;;7.88;;
38123;SDS011;23934;47.998;9.832;2022-10-31T13:01:06;15.65;;;7.78;;
38123;SDS011;23934;47.998;9.832;2022-10-31T13:06:09;23.92;;;8.05;;
38123;SDS011;23934;47.998;9.832;2022-10-31T13:08:43;24.35;;;8.75;;
38123;SDS011;23934;47.998;9.832;2022-10-31T13:11:12;32.45;;;8.20;;
38123;SDS011;23934;47.998;9.832;2022-10-31T13:13:41;25.25;;;8.80;;
38123;SDS011;23934;47.998;9.832;2022-10-31T13:16:21;28.27;;;8.70;;
38123;SDS011;23934;47.998;9.832;2022-10-31T13:18:50;24.20;;;8.13;;
38123;SDS011;23934;47.998;9.832;2022-10-31T13:21:18;16.27;;;6.90;;
38123;SDS011;23934;47.998;9.832;2022-10-31T13:23:47;21.05;;;6.60;;
38123;SDS011;23934;47.998;9.832;2022-10-31T13:26:22;17.00;;;6.43;;
38123;SDS011;23934;47.998;9.832;2022-10-31T13:28:54;17.10;;;6.95;;
38123;SDS011;23934;47.998;9.832;2022-10-31T13:31:23;21.50;;;7.50;;
38123;SDS011;23934;47.998;9.832;2022-10-31T13:33:56;17.17;;;6.55;;
38123;SDS011;23934;47.998;9.832;2022-10-31T13:39:20;22.20;;;6.57;;
38123;SDS011;23934;47.998;9.832;2022-10-31T13:44:21;20.15;;;6.75;;
38123;SDS011;23934;47.998;9.832;2022-10-31T13:46:51;17.55;;;7.28;;
38123;SDS011;23934;47.998;9.832;2022-10-31T13:52:05;18.55;;;7.55;;
38123;SDS011;23934;47.998;9.832;2022-10-31T13:54:40;20.05;;;7.20;;
38123;SDS011;23934;47.998;9.832;2022-10-31T13:57:17;48.67;;;11.90;;
38123;SDS011;23934;47.998;9.832;2022-10-31T13:59:47;26.45;;;11.20;;
38123;SDS011;23934;47.998;9.832;2022-10-31T14:02:15;28.95;;;11.13;;
38123;SDS011;23934;47.998;9.832;2022-10-31T14:04:46;29.85;;;8.93;;
38123;SDS011;23934;47.998;9.832;2022-10-31T14:07:14;32.25;;;12.90;;
38123;SDS011;23934;47.998;9.832;2022-10-31T14:10:01;34.78;;;15.75;;
38123;SDS011;23934;47.998;9.832;2022-10-31T14:15:16;31.83;;;14.40;;
38123;SDS011;23934;47.998;9.832;2022-10-31T14:20:22;36.03;;;14.27;;
38123;SDS011;23934;47.998;9.832;2022-10-31T14:22:49;35.95;;;12.07;;
38123;SDS011;23934;47.998;9.832;2022-10-31T14:25:32;37.03;;;11.73;;
38123;SDS011;23934;47.998;9.832;2022-10-31T14:27:59;27.02;;;13.05;;
38123;SDS011;23934;47.998;9.832;2022-10-31T14:30:26;20.60;;;11.20;;
38123;SDS011;23934;47.998;9.832;2022-10-31T14:33:02;26.58;;;11.43;;
38123;SDS011;23934;47.998;9.832;2022-10-31T14:38:36;26.25;;;10.52;;
38123;SDS011;23934;47.998;9.832;2022-10-31T14:43:45;34.65;;;11.77;;
38123;SDS011;23934;47.998;9.832;2022-10-31T14:51:26;38.75;;;11.43;;
38123;SDS011;23934;47.998;9.832;2022-10-31T14:53:56;30.85;;;13.05;;
38123;SDS011;23934;47.998;9.832;2022-10-31T14:56:29;27.98;;;12.20;;
38123;SDS011;23934;47.998;9.832;2022-10-31T14:58:57;41.72;;;12.38;;
38123;SDS011;23934;47.998;9.832;2022-10-31T15:01:25;26.83;;;11.75;;
38123;SDS011;23934;47.998;9.832;2022-10-31T15:03:52;32.83;;;12.48;;
38123;SDS011;23934;47.998;9.832;2022-10-31T15:06:20;36.53;;;13.60;;
38123;SDS011;23934;47.998;9.832;2022-10-31T15:08:48;32.67;;;13.73;;
38123;SDS011;23934;47.998;9.832;2022-10-31T15:11:16;38.30;;;15.32;;
38123;SDS011;23934;47.998;9.832;2022-10-31T15:16:11;29.75;;;14.88;;
38123;SDS011;23934;47.998;9.832;2022-10-31T15:18:39;35.92;;;15.23;;
38123;SDS011;23934;47.998;9.832;2022-10-31T15:21:10;31.73;;;14.45;;
38123;SDS011;23934;47.998;9.832;2022-10-31T15:23:36;30.75;;;13.55;;
38123;SDS011;23934;47.998;9.832;2022-10-31T15:26:03;35.90;;;15.07;;
38123;SDS011;23934;47.998;9.832;2022-10-31T15:28:29;56.80;;;16.85;;
38123;SDS011;23934;47.998;9.832;2022-10-31T15:30:56;28.63;;;14.18;;
38123;SDS011;23934;47.998;9.832;2022-10-31T15:33:27;40.78;;;14.88;;
38123;SDS011;23934;47.998;9.832;2022-10-31T15:35:58;38.95;;;15.25;;
38123;SDS011;23934;47.998;9.832;2022-10-31T15:38:24;35.50;;;15.40;;
38123;SDS011;23934;47.998;9.832;2022-10-31T15:40:55;36.90;;;15.40;;
38123;SDS011;23934;47.998;9.832;2022-10-31T15:43:21;53.22;;;20.27;;
38123;SDS011;23934;47.998;9.832;2022-10-31T15:45:47;48.53;;;17.10;;
38123;SDS011;23934;47.998;9.832;2022-10-31T15:48:17;57.55;;;18.77;;
38123;SDS011;23934;47.998;9.832;2022-10-31T15:50:53;41.78;;;16.45;;
38123;SDS011;23934;47.998;9.832;2022-10-31T15:53:36;63.70;;;20.67;;
38123;SDS011;23934;47.998;9.832;2022-10-31T15:56:05;42.22;;;17.70;;
38123;SDS011;23934;47.998;9.832;2022-10-31T15:58:44;47.65;;;17.73;;
38123;SDS011;23934;47.998;9.832;2022-10-31T16:01:30;50.78;;;20.27;;
38123;SDS011;23934;47.998;9.832;2022-10-31T16:06:25;99.10;;;40.65;;
38123;SDS011;23934;47.998;9.832;2022-10-31T16:08:51;60.75;;;22.08;;
38123;SDS011;23934;47.998;9.832;2022-10-31T16:11:21;55.22;;;21.10;;
38123;SDS011;23934;47.998;9.832;2022-10-31T16:13:58;60.05;;;21.38;;
38123;SDS011;23934;47.998;9.832;2022-10-31T16:16:25;55.85;;;20.30;;
38123;SDS011;23934;47.998;9.832;2022-10-31T16:18:51;54.47;;;20.50;;
38123;SDS011;23934;47.998;9.832;2022-10-31T16:21:34;51.47;;;19.25;;
38123;SDS011;23934;47.998;9.832;2022-10-31T16:24:03;60.88;;;20.95;;
38123;SDS011;23934;47.998;9.832;2022-10-31T16:26:30;58.50;;;20.13;;
38123;SDS011;23934;47.998;9.832;2022-10-31T16:28:57;59.38;;;21.70;;
38123;SDS011;23934;47.998;9.832;2022-10-31T16:31:35;52.58;;;22.02;;